.
WxDataArchive / Data Records for 2015-08-14
2015-08-13 August 2015 2015-08-15

Data Records for Friday, 14 August 2015

Time	Temp	Chill	HIndex	Humid	Dewpt	 Wind 	HiWind	WindDir	Rain 	Barom
-----	----	-----	------	-----	-----	------	------	-------	-----	-----
00:00	72.0	72.0	72.0	75	63.6	0	0	---	0.00	30.055 
00:05	71.8	71.8	71.8	75	63.4	0	0	---	0.00	30.055 
00:10	71.8	71.8	71.8	76	63.8	0	0	---	0.00	30.055 
00:15	71.8	71.8	71.8	76	63.8	0	0	---	0.00	30.065 
00:20	71.6	71.6	71.6	77	64.0	0	1	292	0.00	30.065 
00:25	71.6	71.6	71.6	77	64.0	0	0	---	0.00	30.065 
00:30	71.6	71.6	71.6	77	64.0	0	0	---	0.00	30.058 
00:35	71.6	71.6	71.6	77	64.0	0	0	---	0.00	30.058 
00:40	71.8	71.8	71.8	77	64.2	0	0	---	0.00	30.058 
00:45	71.8	71.8	71.8	77	64.2	0	0	---	0.00	30.064 
00:50	72.0	72.0	72.0	76	64.0	0	1	292	0.00	30.064 
00:55	72.1	72.1	72.1	76	64.1	0	1	292	0.00	30.064 
01:00	72.1	72.1	72.1	75	63.7	0	1	292	0.00	30.065 
01:05	72.3	72.3	72.3	75	63.9	0	1	292	0.00	30.065 
01:10	72.3	72.3	72.3	74	63.5	0	1	292	0.00	30.065 
01:15	72.5	72.5	72.5	73	63.3	0	0	---	0.00	30.063 
01:20	72.5	72.5	72.5	73	63.3	0	1	292	0.00	30.063 
01:25	72.5	72.5	72.5	73	63.3	0	0	---	0.00	30.063 
01:30	72.3	72.3	72.3	73	63.1	0	0	---	0.00	30.064 
01:35	72.3	72.3	72.3	73	63.1	0	0	---	0.00	30.064 
01:40	72.1	72.1	72.1	73	63.0	0	0	---	0.00	30.064 
01:45	72.1	72.1	72.1	74	63.3	0	0	---	0.00	30.063 
01:50	72.0	72.0	72.0	74	63.2	0	0	---	0.00	30.063 
01:55	71.8	71.8	71.8	74	63.1	0	0	---	0.00	30.063 
02:00	71.6	71.6	71.6	75	63.2	0	0	---	0.00	30.063 
02:05	71.5	71.5	71.5	75	63.1	0	0	---	0.00	30.063 
02:10	71.5	71.5	71.5	75	63.1	0	0	---	0.00	30.063 
02:15	71.5	71.5	71.5	75	63.1	0	0	---	0.00	30.053 
02:20	71.5	71.5	71.5	75	63.1	0	0	---	0.00	30.053 
02:25	71.5	71.5	71.5	75	63.1	0	1	292	0.00	30.053 
02:30	71.3	71.3	71.3	75	63.0	0	1	292	0.00	30.054 
02:35	71.3	71.3	71.3	75	63.0	0	0	---	0.00	30.054 
02:40	71.1	71.1	71.1	75	62.8	0	0	---	0.00	30.054 
02:45	70.9	70.9	70.9	76	62.9	0	0	---	0.00	30.056 
02:50	70.9	70.9	70.9	76	62.9	0	0	---	0.00	30.056 
02:55	70.6	70.6	70.6	76	62.7	0	0	---	0.00	30.056 
03:00	70.4	70.4	70.4	77	62.8	0	0	---	0.00	30.055 
03:05	70.3	70.3	70.3	77	62.7	0	0	---	0.00	30.055 
03:10	70.1	70.1	70.1	77	62.5	0	0	---	0.00	30.055 
03:15	69.8	69.8	69.8	78	62.6	0	0	---	0.00	30.054 
03:20	69.8	69.8	69.8	78	62.6	0	0	---	0.00	30.054 
03:25	69.6	69.6	69.6	79	62.8	0	0	---	0.00	30.054 
03:30	69.6	69.6	69.6	79	62.8	0	0	---	0.00	30.053 
03:35	69.4	69.4	69.4	79	62.6	0	0	---	0.00	30.053 
03:40	69.4	69.4	69.4	79	62.6	0	0	---	0.00	30.053 
03:45	69.3	69.3	69.3	80	62.9	0	0	---	0.00	30.054 
03:50	69.1	69.1	69.1	80	62.7	0	0	---	0.00	30.054 
03:55	68.9	68.9	68.9	80	62.5	0	0	---	0.00	30.054 
04:00	68.9	68.9	68.9	80	62.5	0	0	---	0.00	30.049 
04:05	68.8	68.8	68.8	81	62.7	0	0	---	0.00	30.049 
04:10	68.8	68.8	68.8	81	62.7	0	1	292	0.00	30.049 
04:15	68.8	68.8	68.8	81	62.7	0	0	---	0.00	30.048 
04:20	68.8	68.8	68.8	81	62.7	0	0	---	0.00	30.048 
04:25	68.8	68.8	68.8	81	62.7	0	0	---	0.00	30.048 
04:30	68.6	68.6	68.6	81	62.5	0	0	---	0.00	30.048 
04:35	68.4	68.4	68.4	81	62.3	0	0	---	0.00	30.048 
04:40	68.4	68.4	68.4	81	62.3	0	0	---	0.00	30.048 
04:45	68.3	68.3	68.3	81	62.2	0	0	---	0.00	30.055 
04:50	68.3	68.3	68.3	82	62.6	0	0	---	0.00	30.055 
04:55	68.1	68.1	68.1	82	62.4	0	0	---	0.00	30.055 
05:00	67.9	67.9	67.9	82	62.2	0	0	---	0.00	30.056 
05:05	67.9	67.9	67.9	82	62.2	0	0	---	0.00	30.056 
05:10	67.8	67.8	67.8	82	62.1	0	0	---	0.00	30.056 
05:15	67.8	67.8	67.8	82	62.1	0	0	---	0.00	30.059 
05:20	67.6	67.6	67.6	83	62.2	0	1	292	0.00	30.059 
05:25	67.6	67.6	67.6	83	62.2	0	0	---	0.00	30.059 
05:30	67.6	67.6	67.6	83	62.2	0	1	292	0.00	30.059 
05:35	67.8	67.8	67.8	83	62.4	0	0	---	0.00	30.059 
05:40	67.6	67.6	67.6	83	62.2	0	0	---	0.00	30.059 
05:45	67.6	67.6	67.6	83	62.2	0	0	---	0.00	30.067 
05:50	67.4	67.4	67.4	83	62.0	0	0	---	0.00	30.067 
05:55	67.3	67.3	67.3	83	62.0	0	0	---	0.00	30.067 
06:00	67.1	67.1	67.1	83	61.8	0	0	---	0.00	30.072 
06:05	66.9	66.9	66.9	83	61.6	0	0	---	0.00	30.072 
06:10	66.8	66.8	66.8	84	61.8	0	0	---	0.00	30.072 
06:15	66.6	66.6	66.6	84	61.6	0	0	---	0.00	30.077 
06:20	66.4	66.4	66.4	84	61.4	0	0	---	0.00	30.077 
06:25	66.3	66.3	66.3	85	61.6	0	0	---	0.00	30.077 
06:30	66.3	66.3	66.3	85	61.6	0	0	---	0.00	30.078 
06:35	66.3	66.3	66.3	85	61.6	0	0	---	0.00	30.078 
06:40	66.3	66.3	66.3	85	61.6	0	0	---	0.00	30.078 
06:45	66.1	66.1	66.1	86	61.8	0	0	---	0.00	30.079 
06:50	66.1	66.1	66.1	86	61.8	0	0	---	0.00	30.079 
06:55	66.3	66.3	66.3	86	62.0	0	0	---	0.00	30.079 
07:00	66.3	66.3	66.3	86	62.0	0	1	292	0.00	30.081 
07:05	66.4	66.4	66.4	85	61.7	0	0	---	0.00	30.081 
07:10	66.6	66.6	66.6	85	61.9	0	1	292	0.00	30.081 
07:15	66.6	66.6	66.6	85	61.9	0	0	---	0.00	30.087 
07:20	66.8	66.8	66.8	85	62.1	0	1	292	0.00	30.087 
07:25	66.9	66.9	66.9	84	61.9	0	0	---	0.00	30.087 
07:30	67.1	67.1	67.1	84	62.1	0	1	292	0.00	30.090 
07:35	67.3	67.3	67.3	84	62.3	0	0	---	0.00	30.090 
07:40	67.6	67.6	67.6	84	62.6	0	1	292	0.00	30.090 
07:45	67.8	67.8	67.8	83	62.4	0	1	338	0.00	30.092 
07:50	67.9	67.9	67.9	83	62.5	0	1	338	0.00	30.092 
07:55	68.1	68.1	68.1	83	62.7	0	1	338	0.00	30.092 
08:00	68.4	68.4	68.4	82	62.7	0	1	338	0.00	30.090 
08:05	68.6	68.6	68.6	82	62.9	0	1	338	0.00	30.090 
08:10	68.8	68.8	68.8	81	62.7	0	1	338	0.00	30.090 
08:15	68.9	68.9	68.9	81	62.8	0	1	338	0.00	30.088 
08:20	69.1	69.1	69.1	81	63.0	0	1	338	0.00	30.088 
08:25	69.3	69.3	69.3	80	62.9	0	1	338	0.00	30.088 
08:30	69.3	69.3	69.3	80	62.9	0	1	338	0.00	30.091 
08:35	69.4	69.4	69.4	79	62.6	0	1	338	0.00	30.091 
08:40	69.6	69.6	69.6	79	62.8	0	1	338	0.00	30.091 
08:45	69.8	69.8	69.8	79	63.0	0	0	---	0.00	30.093 
08:50	69.9	69.9	69.9	78	62.7	0	1	338	0.00	30.093 
08:55	70.3	70.3	70.3	78	63.1	0	1	338	0.00	30.093 
09:00	70.4	70.4	70.4	77	62.8	0	2	315	0.00	30.098 
09:05	70.8	70.8	70.8	77	63.2	0	1	315	0.00	30.098 
09:10	70.9	70.9	70.9	76	62.9	0	1	315	0.00	30.098 
09:15	71.1	71.1	71.1	76	63.1	0	1	315	0.00	30.097 
09:20	71.3	71.3	71.3	76	63.3	0	1	315	0.00	30.097 
09:25	71.5	71.5	71.5	76	63.5	0	1	315	0.00	30.097 
09:30	71.8	71.8	71.8	76	63.8	0	1	315	0.00	30.094 
09:35	72.5	72.5	72.5	75	64.1	0	1	315	0.00	30.094 
09:40	73.0	73.0	73.0	74	64.2	0	1	315	0.00	30.094 
09:45	73.3	73.3	73.3	73	64.1	0	2	315	0.00	30.097 
09:50	73.9	73.9	73.9	72	64.3	0	2	315	0.00	30.097 
09:55	74.4	74.4	74.4	71	64.4	0	3	315	0.00	30.097 
10:00	74.7	74.7	74.7	69	63.8	1	3	315	0.00	30.093 
10:05	74.9	74.9	74.9	69	64.0	0	2	315	0.00	30.093 
10:10	74.9	74.9	74.9	69	64.0	1	3	315	0.00	30.093 
10:15	74.9	74.9	74.9	70	64.4	0	2	315	0.00	30.100 
10:20	74.7	74.7	74.7	69	63.8	0	2	315	0.00	30.100 
10:25	74.7	74.7	74.7	69	63.8	0	1	315	0.00	30.100 
10:30	74.7	74.7	74.7	70	64.2	0	1	315	0.00	30.104 
10:35	74.6	74.6	74.6	70	64.2	1	3	315	0.00	30.104 
10:40	74.6	74.6	74.6	70	64.2	0	1	315	0.00	30.104 
10:45	74.7	74.7	74.7	70	64.2	0	1	315	0.00	30.104 
10:50	74.7	74.7	74.7	69	63.8	0	3	315	0.00	30.104 
10:55	74.9	74.9	74.9	69	64.0	0	2	315	0.00	30.104 
11:00	75.4	75.4	77.1	70	64.9	0	2	315	0.00	30.104 
11:05	75.8	75.8	77.5	69	64.9	0	2	315	0.00	30.104 
11:10	76.1	76.1	77.8	69	65.2	0	1	315	0.00	30.104 
11:15	76.1	76.1	77.8	69	65.2	0	1	315	0.00	30.103 
11:20	76.3	76.3	78.0	69	65.4	0	2	315	0.00	30.103 
11:25	76.5	76.5	78.3	68	65.1	0	2	315	0.00	30.103 
11:30	76.7	76.7	78.4	69	65.7	0	1	315	0.00	30.103 
11:35	77.0	77.0	78.8	68	65.6	0	2	315	0.00	30.103 
11:40	77.6	77.6	79.5	67	65.8	0	3	315	0.00	30.103 
11:45	78.1	78.1	80.0	67	66.2	0	2	315	0.00	30.103 
11:50	78.8	78.8	80.8	65	66.0	1	3	315	0.00	30.103 
11:55	79.2	79.2	81.1	63	65.5	1	4	315	0.00	30.103 
12:00	79.2	79.2	81.1	62	65.0	1	3	270	0.00	30.101 
12:05	79.2	79.2	81.1	62	65.0	0	2	270	0.00	30.101 
12:10	79.6	79.6	81.6	63	65.9	0	1	270	0.00	30.101 
12:15	79.9	79.9	81.9	62	65.7	1	3	270	0.00	30.097 
12:20	80.1	80.1	82.3	63	66.3	0	4	270	0.00	30.097 
12:25	80.9	80.9	83.2	62	66.6	1	2	292	0.00	30.097 
12:30	81.4	81.4	83.6	60	66.2	1	3	292	0.00	30.093 
12:35	82.2	82.2	84.5	59	66.4	0	3	315	0.00	30.093 
12:40	82.6	82.6	84.7	57	65.8	1	4	315	0.00	30.093 
12:45	82.2	82.2	84.3	58	65.9	2	5	292	0.00	30.088 
12:50	81.8	81.8	83.8	58	65.6	2	5	292	0.00	30.088 
12:55	81.8	81.8	84.0	59	66.0	0	4	270	0.00	30.088 
13:00	82.2	82.2	84.3	58	65.9	2	4	270	0.00	30.084 
13:05	82.4	82.4	84.8	59	66.6	1	4	270	0.00	30.084 
13:10	82.8	82.8	85.0	57	66.0	1	5	90	0.00	30.084 
13:15	82.8	82.8	85.2	58	66.5	1	5	270	0.00	30.083 
13:20	83.2	83.2	85.6	57	66.4	1	3	270	0.00	30.083 
13:25	83.4	83.4	85.6	56	66.0	1	3	292	0.00	30.083 
13:30	83.6	83.6	86.1	57	66.7	1	5	270	0.00	30.078 
13:35	84.0	84.0	86.5	56	66.6	1	5	270	0.00	30.078 
13:40	84.1	84.1	86.4	55	66.2	2	4	270	0.00	30.078 
13:45	84.1	84.1	86.7	56	66.7	2	5	292	0.00	30.069 
13:50	83.8	83.8	85.7	54	65.3	2	5	292	0.00	30.069 
13:55	84.0	84.0	86.5	56	66.6	1	6	292	0.00	30.069 
14:00	84.5	84.5	87.3	56	67.0	1	4	292	0.00	30.067 
14:05	84.7	84.7	87.3	55	66.7	1	2	292	0.00	30.067 
14:10	84.7	84.7	87.0	54	66.2	1	4	292	0.00	30.067 
14:15	85.3	85.3	88.2	55	67.3	1	3	292	0.00	30.067 
14:20	85.7	85.7	88.3	53	66.6	1	4	292	0.00	30.067 
14:25	85.5	85.5	88.3	54	66.9	1	4	292	0.00	30.067 
14:30	85.3	85.3	88.0	54	66.7	1	3	292	0.00	30.065 
14:35	85.1	85.1	87.9	55	67.1	0	1	292	0.00	30.065 
14:40	84.9	84.9	87.9	56	67.4	0	1	292	0.00	30.065 
14:45	85.1	85.1	87.9	55	67.1	1	4	292	0.00	30.061 
14:50	84.9	84.9	87.3	54	66.4	0	2	292	0.00	30.061 
14:55	84.9	84.9	87.6	55	66.9	0	3	292	0.00	30.061 
15:00	84.5	84.5	87.0	55	66.5	3	6	270	0.00	30.057 
15:05	84.1	84.1	86.7	56	66.7	1	3	270	0.00	30.057 
15:10	84.0	84.0	86.5	56	66.6	1	3	270	0.00	30.057 
15:15	84.0	84.0	86.7	57	67.1	0	2	270	0.00	30.056 
15:20	84.1	84.1	86.7	56	66.7	0	2	270	0.00	30.056 
15:25	84.1	84.1	86.9	57	67.2	1	3	270	0.00	30.056 
15:30	84.1	84.1	86.9	57	67.2	0	3	270	0.00	30.054 
15:35	84.3	84.3	87.2	57	67.4	1	3	270	0.00	30.054 
15:40	84.7	84.7	87.6	56	67.2	1	3	270	0.00	30.054 
15:45	84.9	84.9	88.2	57	67.9	1	3	270	0.00	30.046 
15:50	84.9	84.9	87.9	56	67.4	2	6	270	0.00	30.046 
15:55	84.9	84.9	87.9	56	67.4	2	5	270	0.00	30.046 
16:00	84.7	84.7	87.6	56	67.2	2	4	270	0.00	30.042 
16:05	84.5	84.5	87.3	56	67.0	2	6	270	0.00	30.042 
16:10	84.5	84.5	87.3	56	67.0	1	4	292	0.00	30.042 
16:15	84.5	84.5	87.3	56	67.0	1	4	292	0.00	30.041 
16:20	84.5	84.5	87.5	57	67.6	1	4	292	0.00	30.041 
16:25	84.3	84.3	87.2	57	67.4	0	2	292	0.00	30.041 
16:30	84.1	84.1	86.9	57	67.2	2	4	292	0.00	30.039 
16:35	84.1	84.1	86.9	57	67.2	2	6	292	0.00	30.039 
16:40	84.1	84.1	86.9	57	67.2	2	4	315	0.00	30.039 
16:45	84.1	84.1	87.2	58	67.7	1	2	292	0.00	30.036 
16:50	84.1	84.1	87.2	58	67.7	0	2	292	0.00	30.036 
16:55	84.0	84.0	87.0	58	67.6	0	3	292	0.00	30.036 
17:00	84.1	84.1	87.2	58	67.7	0	2	292	0.00	30.031 
17:05	84.1	84.1	87.2	58	67.7	0	1	292	0.00	30.031 
17:10	84.3	84.3	87.2	57	67.4	0	3	292	0.00	30.031 
17:15	84.5	84.5	87.8	58	68.1	0	2	292	0.00	30.028 
17:20	84.3	84.3	87.5	58	67.9	0	2	292	0.00	30.028 
17:25	84.5	84.5	87.8	58	68.1	0	3	292	0.00	30.028 
17:30	84.5	84.5	87.8	58	68.1	0	2	292	0.00	30.028 
17:35	84.5	84.5	87.8	58	68.1	0	5	68	0.00	30.028 
17:40	85.3	85.3	88.8	57	68.3	1	6	270	0.00	30.028 
17:45	85.1	85.1	88.5	57	68.1	1	4	270	0.00	30.024 
17:50	84.9	84.9	88.5	58	68.4	1	5	270	0.00	30.024 
17:55	84.5	84.5	87.8	58	68.1	2	4	270	0.00	30.024 
18:00	84.7	84.7	88.1	58	68.3	2	6	270	0.00	30.027 
18:05	84.7	84.7	87.9	57	67.7	2	5	292	0.00	30.027 
18:10	84.3	84.3	87.5	58	67.9	0	2	292	0.00	30.027 
18:15	84.3	84.3	87.5	58	67.9	2	5	292	0.00	30.029 
18:20	84.5	84.5	87.5	57	67.6	2	5	292	0.00	30.029 
18:25	84.5	84.5	87.3	56	67.0	1	4	270	0.00	30.029 
18:30	84.7	84.7	87.9	57	67.7	2	5	270	0.00	30.033 
18:35	84.7	84.7	87.9	57	67.7	2	4	270	0.00	30.033 
18:40	84.5	84.5	87.8	58	68.1	2	5	292	0.00	30.033 
18:45	84.5	84.5	87.5	57	67.6	3	5	270	0.00	30.031 
18:50	84.1	84.1	87.2	58	67.7	3	6	270	0.00	30.031 
18:55	83.8	83.8	86.7	58	67.4	2	4	292	0.00	30.031 
19:00	83.4	83.4	86.3	59	67.5	2	5	292	0.00	30.030 
19:05	83.2	83.2	86.0	59	67.4	1	3	292	0.00	30.030 
19:10	83.0	83.0	85.9	60	67.7	0	1	292	0.00	30.030 
19:15	83.0	83.0	86.1	61	68.1	0	2	292	0.00	30.024 
19:20	82.8	82.8	85.8	61	67.9	0	2	292	0.00	30.024 
19:25	82.6	82.6	85.7	62	68.2	0	2	292	0.00	30.024 
19:30	82.6	82.6	85.7	62	68.2	0	1	292	0.00	30.024 
19:35	82.6	82.6	85.7	62	68.2	0	1	292	0.00	30.024 
19:40	82.6	82.6	85.9	63	68.7	0	2	292	0.00	30.024 
19:45	82.6	82.6	85.7	62	68.2	0	1	292	0.00	30.025 
19:50	82.4	82.4	85.6	63	68.5	0	2	292	0.00	30.025 
19:55	82.4	82.4	85.6	63	68.5	0	2	292	0.00	30.025 
20:00	82.4	82.4	85.6	63	68.5	0	2	292	0.00	30.026 
20:05	82.2	82.2	85.3	63	68.3	1	3	292	0.00	30.026 
20:10	82.2	82.2	85.3	63	68.3	1	3	292	0.00	30.026 
20:15	82.2	82.2	85.5	64	68.8	0	2	292	0.00	30.031 
20:20	82.0	82.0	85.2	64	68.6	0	1	292	0.00	30.031 
20:25	81.8	81.8	84.9	64	68.4	0	1	292	0.00	30.031 
20:30	81.6	81.6	84.7	65	68.7	0	1	292	0.00	30.029 
20:35	81.4	81.4	84.4	65	68.5	0	1	292	0.00	30.029 
20:40	81.1	81.1	84.1	66	68.6	0	1	292	0.00	30.029 
20:45	80.9	80.9	84.0	67	68.9	0	1	292	0.00	30.030 
20:50	80.7	80.7	83.7	67	68.7	0	0	---	0.00	30.030 
20:55	80.3	80.3	83.2	68	68.8	0	0	---	0.00	30.030 
21:00	80.1	80.1	83.0	69	69.0	0	0	---	0.00	30.026 
21:05	79.9	79.9	82.7	69	68.8	0	0	---	0.00	30.026 
21:10	79.6	79.6	82.3	70	68.9	0	0	---	0.00	30.026 
21:15	79.4	79.4	82.1	71	69.2	0	0	---	0.00	30.022 
21:20	79.0	79.0	81.6	72	69.2	0	0	---	0.00	30.022 
21:25	78.8	78.8	81.3	73	69.4	0	0	---	0.00	30.022 
21:30	78.6	78.6	81.0	73	69.2	0	0	---	0.00	30.021 
21:35	78.3	78.3	80.6	74	69.3	0	0	---	0.00	30.021 
21:40	78.1	78.1	80.3	74	69.1	0	0	---	0.00	30.021 
21:45	77.9	77.9	80.0	75	69.3	0	0	---	0.00	30.023 
21:50	77.7	77.7	79.7	75	69.1	0	0	---	0.00	30.023 
21:55	77.7	77.7	79.7	75	69.1	0	0	---	0.00	30.023 
22:00	77.6	77.6	79.6	76	69.4	0	0	---	0.00	30.036 
22:05	77.4	77.4	79.3	76	69.2	0	0	---	0.00	30.036 
22:10	77.4	77.4	79.3	76	69.2	0	0	---	0.00	30.036 
22:15	77.2	77.2	79.0	76	69.0	0	0	---	0.00	30.038 
22:20	77.2	77.2	79.0	77	69.4	0	0	---	0.00	30.038 
22:25	77.0	77.0	78.7	77	69.2	0	0	---	0.00	30.038 
22:30	77.0	77.0	78.7	77	69.2	0	0	---	0.00	30.038 
22:35	76.8	76.8	78.4	77	69.0	0	0	---	0.00	30.038 
22:40	76.8	76.8	78.4	77	69.0	0	1	292	0.00	30.038 
22:45	76.8	76.8	78.4	77	69.0	0	1	292	0.00	30.044 
22:50	76.8	76.8	78.4	77	69.0	0	0	---	0.00	30.044 
22:55	76.8	76.8	78.4	77	69.0	0	1	292	0.00	30.044 
23:00	76.8	76.8	78.4	77	69.0	0	0	---	0.00	30.038 
23:05	76.7	76.7	78.2	77	68.9	0	0	---	0.00	30.038 
23:10	76.7	76.7	78.2	77	68.9	0	0	---	0.00	30.038 
23:15	76.5	76.5	77.9	78	69.1	0	0	---	0.00	30.044 
23:20	76.5	76.5	77.9	78	69.1	0	0	---	0.00	30.044 
23:25	76.5	76.5	77.9	78	69.1	0	0	---	0.00	30.044 
23:30	76.3	76.3	77.5	79	69.3	0	0	---	0.00	30.046 
23:35	76.3	76.3	77.5	79	69.3	0	0	---	0.00	30.046 
23:40	76.1	76.1	77.2	79	69.1	0	0	---	0.00	30.046 
23:45	76.1	76.1	77.2	79	69.1	0	0	---	0.00	30.047 
23:50	76.1	76.1	77.1	80	69.5	0	0	---	0.00	30.047 
23:55	76.1	76.1	77.1	80	69.5	0	0	---	0.00	30.047 

CoCoRaHS
IN-AL-39
A2 Web Hosting
Creative Commons License
GoDaddy
search engine by freefind advanced

loaded 2018-11-20 06:19:21 • last modified 2010-11-18 10:43:29
Privacy PolicyDisclaimer
• wx.awcolley.com is powered by PmWiki v.2002016 •
• all content (unless otherwise noted) © 2018 A W Colley